CPK weather

Chesapeake Regional Airport
Norfolk, Virginia, United States

Public forecast

Using degrees Fahrenheit for public forecast. Weather courtesy of forecast.io.

Current aviation weather report (METAR) for Chesapeake Regional Airport

Retrieved 2019/10/24 04:35 UTC (0 seconds ago):

KCPK 240435Z AUTO 00000KT 7SM CLR 08/07 A3024 RMK AO2 T00750070

Closest aviation forecast (TAF) to Chesapeake Regional Airport

Closest forecast is Norfolk International Airport, 14.9 nm (27.6 km) NNE. Retrieved 2019-10-24 00:22 UTC (4 hours ago):

TAF KORF 232320Z 2400/2424 00000KT P6SM SKC FM241400 08007KT P6SM SKC